GOBD

Blaise Diagne International Airport

Dakar, Senegal
METAR GOBD 181230Z 04010KT 010V070 CAVOK 31/M02 Q1016 NOSIG
Observed Flight Rules
Dec-18 @ 12:30 UTC (39 minutes ago) Visual Flight Rules
Wind Visibility Clouds
40° at 10 knots 10,000+ meters
  • Clear skies
Temperatures Readings
Current 31°C / 88°F
Dewpoint -2°C / 28°F
Humidity 12%
Altimeter 30" Hg
Pressure 1016 hPa
Elevation 88
METAR GOBD 181230Z 04010KT 010V070 CAVOK 31/M02 Q1016 NOSIG
Observed Flight Rules
Dec-18 @ 12:30 UTC
(39 minutes ago)
VFR
Wind Visibility
40° at 10 knots 10,000+ meters
Clouds
  • Clear skies
Temperature Dewpoint
31°C / 88°F -2°C / 28°F
Humidity Altimeter Pressure
12% 30" Hg 1016 hPa